CES8543 ZGGG-ZLXN
Flight info
| Callsign | CES8543 |
|---|---|
| Flight time | 3h 6m |
| Altitude | 38100 |
| Route | AGVIL W24 OSNOV G586 QP B330 ELKAL W179 OMBON W195 UPKOD W565 DNC W191 PANRA |
| Aircraft | A319/M-SADE1E2E3GHIJ1J3J5M1P2RWXY/LB1 |
Departure
| Time | 2026-05-04 04:14 |
|---|---|
| Airport | Guangzhou Baiyun International Airport (ZGGG) |
Arrival
| Time | 2026-05-04 07:20 |
|---|---|
| Airport | Xining Caojiabao International Airport (ZLXN) |
| Time | Latitude | Longitude | Altitude | Speed | Heading |
|---|---|---|---|---|---|
| 2026-05-04 03:31 | 23.39428 | 113.29306 | 54 ft | 0 kts | 151° |
| 2026-05-04 03:56 | 23.39431 | 113.29305 | 54 ft | 2 kts | 152° |
| 2026-05-04 03:56 | 23.39444 | 113.29297 | 54 ft | 2 kts | 152° |
| 2026-05-04 03:56 | 23.39457 | 113.29289 | 54 ft | 2 kts | 151° |
| 2026-05-04 03:56 | 23.39471 | 113.29281 | 54 ft | 2 kts | 152° |
| 2026-05-04 03:57 | 23.39484 | 113.29273 | 54 ft | 2 kts | 151° |
| 2026-05-04 03:57 | 23.39497 | 113.29266 | 54 ft | 2 kts | 151° |
| 2026-05-04 03:57 | 23.39511 | 113.29258 | 54 ft | 2 kts | 152° |
| 2026-05-04 03:57 | 23.39524 | 113.29250 | 54 ft | 2 kts | 151° |
| 2026-05-04 03:58 | 23.39551 | 113.29236 | 54 ft | 2 kts | 164° |
| 2026-05-04 03:58 | 23.39566 | 113.29233 | 54 ft | 2 kts | 173° |
| 2026-05-04 03:58 | 23.39581 | 113.29232 | 54 ft | 2 kts | 183° |
| 2026-05-04 03:59 | 23.39596 | 113.29234 | 54 ft | 2 kts | 193° |
| 2026-05-04 03:59 | 23.39610 | 113.29238 | 54 ft | 2 kts | 194° |
| 2026-05-04 03:59 | 23.39625 | 113.29242 | 54 ft | 2 kts | 194° |
| 2026-05-04 03:59 | 23.39630 | 113.29243 | 54 ft | 0 kts | 195° |
| 2026-05-04 04:04 | 23.39607 | 113.29237 | 54 ft | 6 kts | 194° |
| 2026-05-04 04:04 | 23.39556 | 113.29224 | 54 ft | 8 kts | 193° |
| 2026-05-04 04:05 | 23.39493 | 113.29207 | 54 ft | 9 kts | 193° |
| 2026-05-04 04:05 | 23.39418 | 113.29187 | 54 ft | 12 kts | 193° |
| 2026-05-04 04:05 | 23.39331 | 113.29163 | 54 ft | 13 kts | 194° |
| 2026-05-04 04:05 | 23.39236 | 113.29138 | 54 ft | 13 kts | 194° |
| 2026-05-04 04:06 | 23.39183 | 113.29098 | 54 ft | 5 kts | 249° |
| 2026-05-04 04:06 | 23.39190 | 113.29041 | 54 ft | 12 kts | 284° |
| 2026-05-04 04:06 | 23.39192 | 113.28952 | 54 ft | 10 kts | 232° |
| 2026-05-04 04:06 | 23.39118 | 113.28926 | 54 ft | 14 kts | 192° |
| 2026-05-04 04:07 | 23.39002 | 113.28895 | 54 ft | 19 kts | 193° |
| 2026-05-04 04:07 | 23.38852 | 113.28854 | 53 ft | 24 kts | 193° |
| 2026-05-04 04:07 | 23.38671 | 113.28805 | 53 ft | 28 kts | 193° |
| 2026-05-04 04:07 | 23.38470 | 113.28751 | 53 ft | 31 kts | 193° |
| 2026-05-04 04:08 | 23.38250 | 113.28693 | 53 ft | 32 kts | 193° |
| 2026-05-04 04:08 | 23.38024 | 113.28632 | 53 ft | 35 kts | 193° |
| 2026-05-04 04:08 | 23.37814 | 113.28575 | 53 ft | 25 kts | 193° |
| 2026-05-04 04:08 | 23.37692 | 113.28539 | 53 ft | 9 kts | 210° |
| 2026-05-04 04:09 | 23.37671 | 113.28502 | 53 ft | 5 kts | 265° |
| 2026-05-04 04:09 | 23.37674 | 113.28474 | 53 ft | 0 kts | 284° |
| 2026-05-04 04:09 | 23.37677 | 113.28459 | 53 ft | 7 kts | 284° |
| 2026-05-04 04:09 | 23.37707 | 113.28384 | 53 ft | 11 kts | 313° |
| 2026-05-04 04:10 | 23.37767 | 113.28369 | 53 ft | 6 kts | 9° |
| 2026-05-04 04:10 | 23.37776 | 113.28371 | 53 ft | 0 kts | 11° |
| 2026-05-04 04:12 | 23.37784 | 113.28373 | 53 ft | 11 kts | 12° |
| 2026-05-04 04:13 | 23.38122 | 113.28464 | 54 ft | 86 kts | 14° |
| 2026-05-04 04:13 | 23.38940 | 113.28686 | 54 ft | 150 kts | 15° |
| 2026-05-04 04:13 | 23.40093 | 113.29011 | 191 ft | 186 kts | 15° |
| 2026-05-04 04:13 | 23.41386 | 113.29404 | 572 ft | 195 kts | 19° |
| 2026-05-04 04:14 | 23.42599 | 113.29908 | 1353 ft | 183 kts | 23° |
| 2026-05-04 04:14 | 23.43778 | 113.30315 | 1996 ft | 181 kts | 4° |
| 2026-05-04 04:14 | 23.45090 | 113.30016 | 2313 ft | 203 kts | 339° |
| 2026-05-04 04:14 | 23.46425 | 113.29361 | 2703 ft | 220 kts | 337° |
| 2026-05-04 04:15 | 23.47864 | 113.28642 | 3107 ft | 236 kts | 339° |
| 2026-05-04 04:15 | 23.49411 | 113.27921 | 3705 ft | 244 kts | 339° |
| 2026-05-04 04:15 | 23.50984 | 113.27221 | 4393 ft | 247 kts | 338° |
| 2026-05-04 04:15 | 23.52598 | 113.26527 | 4848 ft | 249 kts | 340° |
| 2026-05-04 04:16 | 23.54282 | 113.25940 | 5256 ft | 261 kts | 342° |
| 2026-05-04 04:16 | 23.56076 | 113.25376 | 5714 ft | 275 kts | 342° |
| 2026-05-04 04:16 | 23.57947 | 113.24758 | 5972 ft | 278 kts | 335° |
| 2026-05-04 04:16 | 23.59605 | 113.23717 | 5995 ft | 276 kts | 317° |
| 2026-05-04 04:17 | 23.60956 | 113.22226 | 6022 ft | 275 kts | 309° |
| 2026-05-04 04:17 | 23.62211 | 113.20638 | 6008 ft | 275 kts | 308° |
| 2026-05-04 04:17 | 23.63441 | 113.19073 | 6012 ft | 275 kts | 309° |
| 2026-05-04 04:17 | 23.64715 | 113.17473 | 6037 ft | 278 kts | 309° |
| 2026-05-04 04:18 | 23.66002 | 113.15877 | 6445 ft | 284 kts | 309° |
| 2026-05-04 04:18 | 23.67291 | 113.14287 | 7336 ft | 281 kts | 309° |
| 2026-05-04 04:18 | 23.68576 | 113.12708 | 8214 ft | 278 kts | 308° |
| 2026-05-04 04:18 | 23.69851 | 113.11134 | 9020 ft | 279 kts | 307° |
| 2026-05-04 04:19 | 23.71137 | 113.09548 | 9803 ft | 278 kts | 307° |
| 2026-05-04 04:19 | 23.72385 | 113.07931 | 10473 ft | 279 kts | 303° |
| 2026-05-04 04:19 | 23.73513 | 113.06179 | 10812 ft | 291 kts | 298° |
| 2026-05-04 04:19 | 23.74555 | 113.04206 | 11101 ft | 305 kts | 295° |
| 2026-05-04 04:20 | 23.75597 | 113.02120 | 11488 ft | 316 kts | 295° |
| 2026-05-04 04:20 | 23.76682 | 113.00025 | 12111 ft | 320 kts | 301° |
| 2026-05-04 04:20 | 23.78246 | 112.98259 | 12726 ft | 329 kts | 319° |
| 2026-05-04 04:20 | 23.80308 | 112.97109 | 13332 ft | 339 kts | 336° |
| 2026-05-04 04:21 | 23.82571 | 112.96347 | 13920 ft | 342 kts | 338° |
| 2026-05-04 04:21 | 23.84898 | 112.95599 | 14461 ft | 345 kts | 338° |
| 2026-05-04 04:21 | 23.87210 | 112.94843 | 14944 ft | 348 kts | 337° |
| 2026-05-04 04:21 | 23.89564 | 112.94071 | 15438 ft | 352 kts | 337° |
| 2026-05-04 04:22 | 23.91910 | 112.93296 | 15868 ft | 356 kts | 337° |
| 2026-05-04 04:22 | 23.94316 | 112.92497 | 16301 ft | 361 kts | 337° |
| 2026-05-04 04:22 | 23.96721 | 112.91701 | 16753 ft | 364 kts | 336° |
| 2026-05-04 04:22 | 23.99154 | 112.90894 | 17190 ft | 367 kts | 336° |
| 2026-05-04 04:23 | 24.01617 | 112.90075 | 17615 ft | 370 kts | 336° |
| 2026-05-04 04:23 | 24.04092 | 112.89251 | 18050 ft | 372 kts | 336° |
| 2026-05-04 04:23 | 24.06579 | 112.88425 | 18518 ft | 374 kts | 336° |
| 2026-05-04 04:23 | 24.09085 | 112.87588 | 18920 ft | 377 kts | 336° |
| 2026-05-04 04:24 | 24.11626 | 112.86743 | 19097 ft | 379 kts | 336° |
| 2026-05-04 04:24 | 24.14131 | 112.85910 | 19097 ft | 380 kts | 335° |
| 2026-05-04 04:24 | 24.16672 | 112.85063 | 19348 ft | 384 kts | 335° |
| 2026-05-04 04:24 | 24.19240 | 112.84211 | 19854 ft | 384 kts | 335° |
| 2026-05-04 04:25 | 24.21831 | 112.83353 | 20300 ft | 385 kts | 335° |
| 2026-05-04 04:25 | 24.24402 | 112.82500 | 20713 ft | 387 kts | 335° |
| 2026-05-04 04:25 | 24.26982 | 112.81640 | 21100 ft | 389 kts | 335° |
| 2026-05-04 04:25 | 24.29577 | 112.80776 | 21503 ft | 390 kts | 335° |
| 2026-05-04 04:26 | 24.32188 | 112.79906 | 21887 ft | 392 kts | 335° |
| 2026-05-04 04:26 | 24.34819 | 112.79028 | 22240 ft | 395 kts | 335° |
| 2026-05-04 04:26 | 24.37449 | 112.78150 | 22602 ft | 397 kts | 335° |
| 2026-05-04 04:26 | 24.40113 | 112.77261 | 22907 ft | 400 kts | 335° |
| 2026-05-04 04:27 | 24.42780 | 112.76370 | 23231 ft | 403 kts | 335° |
| 2026-05-04 04:27 | 24.45351 | 112.75240 | 23542 ft | 392 kts | 321° |
| 2026-05-04 04:27 | 24.47398 | 112.73396 | 23874 ft | 377 kts | 304° |
| 2026-05-04 04:27 | 24.48822 | 112.71025 | 24223 ft | 366 kts | 289° |
| 2026-05-04 04:28 | 24.49559 | 112.68401 | 24552 ft | 360 kts | 275° |
| 2026-05-04 04:28 | 24.49841 | 112.65672 | 24865 ft | 361 kts | 273° |
| 2026-05-04 04:28 | 24.50110 | 112.62920 | 25048 ft | 366 kts | 273° |
| 2026-05-04 04:28 | 24.50387 | 112.60120 | 25219 ft | 372 kts | 273° |
| 2026-05-04 04:29 | 24.50665 | 112.57291 | 25343 ft | 376 kts | 273° |
| 2026-05-04 04:29 | 24.50947 | 112.54430 | 25595 ft | 374 kts | 274° |
| 2026-05-04 04:29 | 24.51226 | 112.51605 | 25868 ft | 376 kts | 273° |
| 2026-05-04 04:29 | 24.51506 | 112.48753 | 26138 ft | 377 kts | 273° |
| 2026-05-04 04:30 | 24.51779 | 112.45921 | 26407 ft | 378 kts | 272° |
| 2026-05-04 04:30 | 24.52058 | 112.43037 | 26681 ft | 379 kts | 273° |
| 2026-05-04 04:30 | 24.52338 | 112.40135 | 26952 ft | 381 kts | 273° |
| 2026-05-04 04:30 | 24.52613 | 112.37252 | 27220 ft | 382 kts | 273° |
| 2026-05-04 04:31 | 24.52892 | 112.34357 | 27489 ft | 383 kts | 273° |
| 2026-05-04 04:31 | 24.53175 | 112.31432 | 27763 ft | 385 kts | 272° |
| 2026-05-04 04:31 | 24.53457 | 112.28510 | 28087 ft | 385 kts | 272° |
| 2026-05-04 04:31 | 24.53733 | 112.25598 | 28427 ft | 385 kts | 272° |
| 2026-05-04 04:32 | 24.54012 | 112.22679 | 28773 ft | 385 kts | 272° |
| 2026-05-04 04:32 | 24.54287 | 112.19784 | 29119 ft | 385 kts | 272° |
| 2026-05-04 04:32 | 24.54567 | 112.16849 | 29473 ft | 385 kts | 272° |
| 2026-05-04 04:32 | 24.54843 | 112.13934 | 29823 ft | 385 kts | 272° |
| 2026-05-04 04:33 | 24.55118 | 112.11036 | 30171 ft | 384 kts | 272° |
| 2026-05-04 04:33 | 24.55394 | 112.08112 | 30524 ft | 384 kts | 272° |
| 2026-05-04 04:33 | 24.55663 | 112.05231 | 30871 ft | 382 kts | 272° |
| 2026-05-04 04:33 | 24.55934 | 112.02370 | 30970 ft | 376 kts | 272° |
| 2026-05-04 04:34 | 24.56202 | 111.99503 | 30582 ft | 376 kts | 272° |
| 2026-05-04 04:34 | 24.56469 | 111.96627 | 30460 ft | 380 kts | 272° |
| 2026-05-04 04:34 | 24.57005 | 111.90872 | 30451 ft | 383 kts | 272° |
| 2026-05-04 04:35 | 24.57544 | 111.85042 | 30477 ft | 386 kts | 272° |
| 2026-05-04 04:35 | 24.57815 | 111.82123 | 30753 ft | 386 kts | 272° |
| 2026-05-04 04:35 | 24.58086 | 111.79197 | 31144 ft | 383 kts | 272° |
| 2026-05-04 04:36 | 24.58621 | 111.73400 | 31237 ft | 380 kts | 272° |
| 2026-05-04 04:36 | 24.59148 | 111.67624 | 31235 ft | 380 kts | 272° |
| 2026-05-04 04:37 | 24.59938 | 111.58959 | 31370 ft | 382 kts | 272° |
| 2026-05-04 04:37 | 24.60203 | 111.56061 | 31729 ft | 380 kts | 272° |
| 2026-05-04 04:38 | 24.60460 | 111.53209 | 32090 ft | 378 kts | 272° |
| 2026-05-04 04:38 | 24.60720 | 111.50338 | 32201 ft | 378 kts | 272° |
| 2026-05-04 04:38 | 24.61230 | 111.44683 | 32207 ft | 378 kts | 272° |
| 2026-05-04 04:39 | 24.61745 | 111.38899 | 32659 ft | 377 kts | 272° |
| 2026-05-04 04:39 | 24.62000 | 111.36068 | 33084 ft | 374 kts | 272° |
| 2026-05-04 04:39 | 24.62254 | 111.33215 | 33208 ft | 375 kts | 271° |
| 2026-05-04 04:40 | 24.62756 | 111.27538 | 33212 ft | 374 kts | 271° |
| 2026-05-04 04:40 | 24.63001 | 111.24699 | 33365 ft | 376 kts | 272° |
| 2026-05-04 04:40 | 24.63250 | 111.21817 | 33754 ft | 374 kts | 272° |
| 2026-05-04 04:41 | 24.63490 | 111.19020 | 34123 ft | 371 kts | 272° |
| 2026-05-04 04:41 | 24.63736 | 111.16177 | 34416 ft | 371 kts | 272° |
| 2026-05-04 04:41 | 24.63979 | 111.13348 | 34623 ft | 372 kts | 272° |
| 2026-05-04 04:41 | 24.64221 | 111.10533 | 34817 ft | 373 kts | 272° |
| 2026-05-04 04:42 | 24.64467 | 111.07684 | 35021 ft | 374 kts | 272° |
| 2026-05-04 04:42 | 24.64708 | 111.04854 | 35206 ft | 374 kts | 272° |
| 2026-05-04 04:42 | 24.64949 | 111.02003 | 35382 ft | 375 kts | 272° |
| 2026-05-04 04:42 | 24.65191 | 110.99171 | 35559 ft | 376 kts | 272° |
| 2026-05-04 04:43 | 24.65432 | 110.96308 | 35705 ft | 377 kts | 273° |
| 2026-05-04 04:43 | 24.65677 | 110.93428 | 35837 ft | 378 kts | 273° |
| 2026-05-04 04:43 | 24.65920 | 110.90561 | 35963 ft | 378 kts | 273° |
| 2026-05-04 04:43 | 24.66172 | 110.87684 | 36077 ft | 380 kts | 275° |
| 2026-05-04 04:44 | 24.66634 | 110.84818 | 36187 ft | 383 kts | 279° |
| 2026-05-04 04:44 | 24.67361 | 110.82004 | 36208 ft | 387 kts | 284° |
| 2026-05-04 04:44 | 24.69598 | 110.76595 | 36207 ft | 394 kts | 295° |
| 2026-05-04 04:45 | 24.72872 | 110.71674 | 36201 ft | 402 kts | 305° |
| 2026-05-04 04:47 | 24.87013 | 110.56601 | 36206 ft | 405 kts | 309° |
| 2026-05-04 04:47 | 24.91097 | 110.52292 | 36208 ft | 405 kts | 308° |
| 2026-05-04 04:48 | 24.95145 | 110.48011 | 36208 ft | 404 kts | 308° |
| 2026-05-04 04:49 | 25.05304 | 110.37279 | 36203 ft | 405 kts | 309° |
| 2026-05-04 04:49 | 25.09376 | 110.32978 | 36195 ft | 404 kts | 308° |
| 2026-05-04 04:50 | 25.13416 | 110.28702 | 36198 ft | 403 kts | 308° |
| 2026-05-04 04:50 | 25.17456 | 110.24423 | 36192 ft | 403 kts | 308° |
| 2026-05-04 04:51 | 25.21509 | 110.20137 | 36195 ft | 403 kts | 308° |
| 2026-05-04 04:51 | 25.25572 | 110.15892 | 36193 ft | 403 kts | 308° |
| 2026-05-04 04:52 | 25.29637 | 110.11643 | 36191 ft | 402 kts | 308° |
| 2026-05-04 04:52 | 25.33707 | 110.07375 | 36200 ft | 403 kts | 309° |
| 2026-05-04 04:53 | 25.37776 | 110.03108 | 36205 ft | 402 kts | 308° |
| 2026-05-04 04:53 | 25.41818 | 109.98864 | 36213 ft | 402 kts | 308° |
| 2026-05-04 04:54 | 25.45879 | 109.94589 | 36226 ft | 401 kts | 308° |
| 2026-05-04 04:54 | 25.49914 | 109.90339 | 36233 ft | 401 kts | 308° |
| 2026-05-04 04:55 | 25.53973 | 109.86062 | 36234 ft | 402 kts | 308° |
| 2026-05-04 04:55 | 25.58018 | 109.81794 | 36229 ft | 402 kts | 308° |
| 2026-05-04 04:56 | 25.62056 | 109.77531 | 36234 ft | 401 kts | 308° |
| 2026-05-04 04:56 | 25.66089 | 109.73262 | 36225 ft | 400 kts | 309° |
| 2026-05-04 04:57 | 25.70136 | 109.68984 | 36219 ft | 401 kts | 308° |
| 2026-05-04 04:57 | 25.73871 | 109.64516 | 36215 ft | 393 kts | 301° |
| 2026-05-04 04:58 | 25.76931 | 109.59534 | 36209 ft | 388 kts | 294° |
| 2026-05-04 04:58 | 25.79244 | 109.54230 | 36207 ft | 382 kts | 287° |
| 2026-05-04 04:59 | 25.80902 | 109.48629 | 36205 ft | 379 kts | 283° |
| 2026-05-04 04:59 | 25.82395 | 109.43032 | 36209 ft | 380 kts | 283° |
| 2026-05-04 05:00 | 25.83881 | 109.37417 | 36212 ft | 380 kts | 282° |
| 2026-05-04 05:01 | 25.86095 | 109.28984 | 36220 ft | 380 kts | 282° |
| 2026-05-04 05:01 | 25.87561 | 109.23394 | 36219 ft | 380 kts | 282° |
| 2026-05-04 05:02 | 25.89038 | 109.17749 | 36221 ft | 380 kts | 282° |
| 2026-05-04 05:02 | 25.90499 | 109.12151 | 36221 ft | 380 kts | 282° |
| 2026-05-04 05:03 | 25.91968 | 109.06519 | 36213 ft | 380 kts | 282° |
| 2026-05-04 05:04 | 25.94953 | 108.95259 | 36215 ft | 381 kts | 283° |
| 2026-05-04 05:04 | 25.96450 | 108.89623 | 36218 ft | 381 kts | 283° |
| 2026-05-04 05:06 | 26.02430 | 108.67059 | 36235 ft | 381 kts | 283° |
| 2026-05-04 05:07 | 26.03934 | 108.61413 | 36238 ft | 382 kts | 283° |
| 2026-05-04 05:07 | 26.05430 | 108.55763 | 36235 ft | 382 kts | 283° |
| 2026-05-04 05:09 | 26.13582 | 108.30745 | 36258 ft | 385 kts | 291° |
| 2026-05-04 05:10 | 26.15894 | 108.25388 | 36265 ft | 386 kts | 291° |
| 2026-05-04 05:10 | 26.18223 | 108.19991 | 36271 ft | 386 kts | 291° |
| 2026-05-04 05:11 | 26.20532 | 108.14642 | 36267 ft | 386 kts | 291° |
| 2026-05-04 05:11 | 26.22854 | 108.09254 | 36269 ft | 386 kts | 291° |
| 2026-05-04 05:12 | 26.25164 | 108.03894 | 36264 ft | 386 kts | 291° |
| 2026-05-04 05:12 | 26.27476 | 107.98510 | 36264 ft | 386 kts | 291° |
| 2026-05-04 05:13 | 26.29804 | 107.93096 | 36263 ft | 387 kts | 291° |
| 2026-05-04 05:13 | 26.32104 | 107.87730 | 36262 ft | 386 kts | 291° |
| 2026-05-04 05:14 | 26.34415 | 107.82336 | 36264 ft | 385 kts | 291° |
| 2026-05-04 05:14 | 26.36721 | 107.76946 | 36262 ft | 385 kts | 291° |
| 2026-05-04 05:15 | 26.39016 | 107.71575 | 36264 ft | 386 kts | 291° |
| 2026-05-04 05:15 | 26.41318 | 107.66181 | 36268 ft | 386 kts | 291° |
| 2026-05-04 05:16 | 26.43622 | 107.60771 | 36266 ft | 386 kts | 291° |
| 2026-05-04 05:16 | 26.45919 | 107.55370 | 36273 ft | 386 kts | 291° |
| 2026-05-04 05:17 | 26.48204 | 107.49994 | 36282 ft | 385 kts | 292° |
| 2026-05-04 05:17 | 26.50502 | 107.44576 | 36286 ft | 386 kts | 292° |
| 2026-05-04 05:18 | 26.52789 | 107.39171 | 36296 ft | 385 kts | 291° |
| 2026-05-04 05:18 | 26.55063 | 107.33788 | 36292 ft | 385 kts | 291° |
| 2026-05-04 05:19 | 26.57357 | 107.28375 | 36291 ft | 384 kts | 291° |
| 2026-05-04 05:19 | 26.59630 | 107.23006 | 36291 ft | 385 kts | 292° |
| 2026-05-04 05:20 | 26.61904 | 107.17617 | 36297 ft | 384 kts | 291° |
| 2026-05-04 05:20 | 26.64185 | 107.12221 | 36295 ft | 385 kts | 292° |
| 2026-05-04 05:21 | 26.66494 | 107.06798 | 36296 ft | 384 kts | 292° |
| 2026-05-04 05:21 | 26.68781 | 107.01420 | 36295 ft | 386 kts | 292° |
| 2026-05-04 05:22 | 26.71077 | 106.95997 | 36300 ft | 386 kts | 292° |
| 2026-05-04 05:22 | 26.73372 | 106.90571 | 36304 ft | 385 kts | 292° |
| 2026-05-04 05:23 | 26.75750 | 106.85185 | 36309 ft | 387 kts | 296° |
| 2026-05-04 05:23 | 26.78614 | 106.80087 | 36311 ft | 389 kts | 301° |
| 2026-05-04 05:24 | 26.81999 | 106.75343 | 36317 ft | 392 kts | 307° |
| 2026-05-04 05:24 | 26.85897 | 106.71004 | 36315 ft | 397 kts | 312° |
| 2026-05-04 05:25 | 26.90036 | 106.66914 | 36317 ft | 396 kts | 313° |
| 2026-05-04 05:25 | 26.94175 | 106.62849 | 36316 ft | 396 kts | 313° |
| 2026-05-04 05:26 | 26.98309 | 106.58790 | 36315 ft | 396 kts | 313° |
| 2026-05-04 05:26 | 27.02455 | 106.54718 | 36318 ft | 395 kts | 313° |
| 2026-05-04 05:28 | 27.19028 | 106.38404 | 36312 ft | 395 kts | 313° |
| 2026-05-04 05:29 | 27.23177 | 106.34354 | 36315 ft | 394 kts | 313° |
| 2026-05-04 05:29 | 27.27344 | 106.30310 | 36306 ft | 393 kts | 313° |
| 2026-05-04 05:31 | 27.43858 | 106.14207 | 36297 ft | 393 kts | 313° |
| 2026-05-04 05:32 | 27.47988 | 106.10165 | 36292 ft | 392 kts | 313° |
| 2026-05-04 05:33 | 27.54062 | 106.04222 | 36284 ft | 380 kts | 313° |
| 2026-05-04 05:33 | 27.58060 | 106.00298 | 36276 ft | 379 kts | 313° |
| 2026-05-04 05:34 | 27.62027 | 105.96399 | 36268 ft | 375 kts | 313° |
| 2026-05-04 05:34 | 27.63951 | 105.94514 | 36265 ft | 360 kts | 313° |
| 2026-05-04 05:34 | 27.65823 | 105.92680 | 36266 ft | 350 kts | 313° |
| 2026-05-04 05:35 | 27.69301 | 105.88921 | 36264 ft | 346 kts | 306° |
| 2026-05-04 05:35 | 27.72230 | 105.84572 | 36362 ft | 347 kts | 299° |
| 2026-05-04 05:36 | 27.74507 | 105.79763 | 36484 ft | 349 kts | 291° |
| 2026-05-04 05:36 | 27.76161 | 105.74547 | 36594 ft | 354 kts | 287° |
| 2026-05-04 05:37 | 27.77668 | 105.69251 | 36689 ft | 359 kts | 287° |
| 2026-05-04 05:37 | 27.79190 | 105.63850 | 36784 ft | 364 kts | 288° |
| 2026-05-04 05:38 | 27.82048 | 105.55820 | 36901 ft | 372 kts | 292° |
| 2026-05-04 05:38 | 27.84112 | 105.50468 | 36988 ft | 376 kts | 292° |
| 2026-05-04 05:39 | 27.87245 | 105.42351 | 37063 ft | 375 kts | 292° |
| 2026-05-04 05:40 | 27.90604 | 105.34378 | 37066 ft | 376 kts | 295° |
| 2026-05-04 05:40 | 27.92948 | 105.29104 | 37072 ft | 377 kts | 295° |
| 2026-05-04 05:41 | 27.95462 | 105.23892 | 37074 ft | 379 kts | 300° |
| 2026-05-04 05:41 | 27.98632 | 105.19091 | 37070 ft | 381 kts | 307° |
| 2026-05-04 05:42 | 28.02392 | 105.14870 | 37062 ft | 386 kts | 314° |
| 2026-05-04 05:42 | 28.06761 | 105.11252 | 37051 ft | 392 kts | 321° |
| 2026-05-04 05:43 | 28.11406 | 105.07959 | 37047 ft | 392 kts | 321° |
| 2026-05-04 05:45 | 28.29939 | 104.94965 | 37057 ft | 391 kts | 321° |
| 2026-05-04 05:47 | 28.48504 | 104.81967 | 36994 ft | 396 kts | 321° |
| 2026-05-04 05:47 | 28.53255 | 104.78641 | 36982 ft | 402 kts | 322° |
| 2026-05-04 05:48 | 28.58039 | 104.75291 | 36980 ft | 405 kts | 322° |
| 2026-05-04 05:48 | 28.62841 | 104.71923 | 36980 ft | 406 kts | 322° |
| 2026-05-04 05:49 | 28.67629 | 104.68562 | 36979 ft | 405 kts | 322° |
| 2026-05-04 05:49 | 28.72437 | 104.65183 | 36974 ft | 405 kts | 321° |
| 2026-05-04 05:51 | 28.91594 | 104.51644 | 36954 ft | 406 kts | 321° |
| 2026-05-04 05:52 | 28.96390 | 104.48230 | 36949 ft | 405 kts | 321° |
| 2026-05-04 05:52 | 29.01159 | 104.44828 | 36944 ft | 406 kts | 321° |
| 2026-05-04 05:54 | 29.20404 | 104.31231 | 36949 ft | 412 kts | 326° |
| 2026-05-04 05:55 | 29.25839 | 104.28854 | 36952 ft | 423 kts | 336° |
| 2026-05-04 05:55 | 29.31723 | 104.27720 | 36956 ft | 437 kts | 347° |
| 2026-05-04 05:56 | 29.37904 | 104.27990 | 36959 ft | 451 kts | 357° |
| 2026-05-04 05:56 | 29.44107 | 104.29002 | 36959 ft | 452 kts | 358° |
| 2026-05-04 05:57 | 29.50324 | 104.30072 | 36963 ft | 453 kts | 358° |
| 2026-05-04 05:57 | 29.56555 | 104.31139 | 36966 ft | 452 kts | 358° |
| 2026-05-04 05:58 | 29.62772 | 104.32201 | 36970 ft | 452 kts | 358° |
| 2026-05-04 05:58 | 29.69027 | 104.33268 | 36957 ft | 453 kts | 358° |
| 2026-05-04 05:59 | 29.75262 | 104.34334 | 36963 ft | 453 kts | 358° |
| 2026-05-04 05:59 | 29.81500 | 104.35400 | 36968 ft | 453 kts | 359° |
| 2026-05-04 06:00 | 29.87719 | 104.36468 | 36964 ft | 453 kts | 359° |
| 2026-05-04 06:00 | 29.93982 | 104.37543 | 36951 ft | 453 kts | 359° |
| 2026-05-04 06:01 | 30.00215 | 104.38614 | 36964 ft | 453 kts | 358° |
| 2026-05-04 06:03 | 30.25151 | 104.42932 | 36981 ft | 454 kts | 358° |
| 2026-05-04 06:05 | 30.53226 | 104.47720 | 36975 ft | 448 kts | 354° |
| 2026-05-04 06:06 | 30.59408 | 104.47805 | 36969 ft | 437 kts | 347° |
| 2026-05-04 06:06 | 30.65340 | 104.46935 | 36969 ft | 427 kts | 340° |
| 2026-05-04 06:07 | 30.71056 | 104.45176 | 36966 ft | 420 kts | 334° |
| 2026-05-04 06:07 | 30.76597 | 104.43066 | 36964 ft | 418 kts | 333° |
| 2026-05-04 06:08 | 30.82174 | 104.41063 | 36966 ft | 421 kts | 337° |
| 2026-05-04 06:08 | 30.87951 | 104.39643 | 36967 ft | 428 kts | 342° |
| 2026-05-04 06:09 | 30.93899 | 104.38876 | 36969 ft | 435 kts | 347° |
| 2026-05-04 06:11 | 31.18223 | 104.38170 | 36984 ft | 435 kts | 349° |
| 2026-05-04 06:13 | 31.42352 | 104.36983 | 36999 ft | 434 kts | 348° |
| 2026-05-04 06:14 | 31.63435 | 104.35746 | 37052 ft | 433 kts | 349° |
| 2026-05-04 06:15 | 31.69445 | 104.35394 | 37070 ft | 434 kts | 349° |
| 2026-05-04 06:15 | 31.75444 | 104.35043 | 37068 ft | 431 kts | 349° |
| 2026-05-04 06:16 | 31.81436 | 104.34717 | 37110 ft | 432 kts | 349° |
| 2026-05-04 06:16 | 31.87450 | 104.34410 | 37104 ft | 433 kts | 349° |
| 2026-05-04 06:17 | 31.93478 | 104.34106 | 37104 ft | 433 kts | 349° |
| 2026-05-04 06:17 | 31.99508 | 104.33800 | 37129 ft | 433 kts | 349° |
| 2026-05-04 06:18 | 32.05503 | 104.33490 | 37153 ft | 431 kts | 349° |
| 2026-05-04 06:20 | 32.29435 | 104.32256 | 37232 ft | 429 kts | 350° |
| 2026-05-04 06:21 | 32.43807 | 104.31541 | 37226 ft | 385 kts | 349° |
| 2026-05-04 06:22 | 32.49224 | 104.31265 | 37211 ft | 393 kts | 349° |
| 2026-05-04 06:25 | 32.89617 | 104.29313 | 37321 ft | 424 kts | 351° |
| 2026-05-04 06:26 | 32.95480 | 104.29028 | 37314 ft | 423 kts | 351° |
| 2026-05-04 06:26 | 33.01400 | 104.28744 | 37310 ft | 423 kts | 351° |
| 2026-05-04 06:27 | 33.16138 | 104.28028 | 37281 ft | 424 kts | 351° |
| 2026-05-04 06:28 | 33.22052 | 104.27741 | 37257 ft | 424 kts | 351° |
| 2026-05-04 06:28 | 33.27959 | 104.27348 | 37238 ft | 422 kts | 347° |
| 2026-05-04 06:29 | 33.33673 | 104.26154 | 37275 ft | 415 kts | 341° |
| 2026-05-04 06:29 | 33.39137 | 104.24091 | 37272 ft | 412 kts | 334° |
| 2026-05-04 06:30 | 33.44305 | 104.21195 | 37311 ft | 409 kts | 327° |
| 2026-05-04 06:30 | 33.49287 | 104.17848 | 37310 ft | 408 kts | 327° |
| 2026-05-04 06:31 | 33.54375 | 104.14831 | 37302 ft | 413 kts | 333° |
| 2026-05-04 06:31 | 33.59901 | 104.12654 | 37308 ft | 418 kts | 341° |
| 2026-05-04 06:33 | 33.83506 | 104.11153 | 37274 ft | 428 kts | 354° |
| 2026-05-04 06:34 | 33.89499 | 104.11167 | 37241 ft | 429 kts | 354° |
| 2026-05-04 06:34 | 33.95452 | 104.11179 | 37233 ft | 430 kts | 354° |
| 2026-05-04 06:36 | 34.19439 | 104.11185 | 37242 ft | 430 kts | 354° |
| 2026-05-04 06:37 | 34.25435 | 104.11178 | 37246 ft | 430 kts | 354° |
| 2026-05-04 06:37 | 34.31424 | 104.11186 | 37230 ft | 430 kts | 354° |
| 2026-05-04 06:38 | 34.37403 | 104.11180 | 37236 ft | 431 kts | 354° |
| 2026-05-04 06:40 | 34.61446 | 104.11182 | 37249 ft | 433 kts | 354° |
| 2026-05-04 06:40 | 34.67480 | 104.11184 | 37243 ft | 433 kts | 354° |
| 2026-05-04 06:41 | 34.73511 | 104.11185 | 37237 ft | 433 kts | 354° |
| 2026-05-04 06:41 | 34.79523 | 104.11186 | 37243 ft | 433 kts | 354° |
| 2026-05-04 06:42 | 34.85572 | 104.11184 | 37238 ft | 433 kts | 355° |
| 2026-05-04 06:44 | 35.09658 | 104.11188 | 37217 ft | 432 kts | 355° |
| 2026-05-04 06:44 | 35.15689 | 104.11185 | 37212 ft | 433 kts | 355° |
| 2026-05-04 06:45 | 35.21699 | 104.11189 | 37197 ft | 433 kts | 355° |
| 2026-05-04 06:45 | 35.27763 | 104.11186 | 37186 ft | 434 kts | 355° |
| 2026-05-04 06:46 | 35.33816 | 104.11189 | 37176 ft | 434 kts | 355° |
| 2026-05-04 06:46 | 35.39859 | 104.11187 | 37162 ft | 435 kts | 355° |
| 2026-05-04 06:48 | 35.64059 | 104.11247 | 37137 ft | 435 kts | 355° |
| 2026-05-04 06:50 | 35.88277 | 104.10752 | 37081 ft | 432 kts | 351° |
| 2026-05-04 06:51 | 35.94272 | 104.10093 | 37070 ft | 433 kts | 351° |
| 2026-05-04 06:51 | 36.00284 | 104.09432 | 37036 ft | 433 kts | 351° |
| 2026-05-04 06:52 | 36.06311 | 104.08773 | 37019 ft | 433 kts | 351° |
| 2026-05-04 06:52 | 36.12204 | 104.08124 | 37009 ft | 433 kts | 350° |
| 2026-05-04 06:53 | 36.17925 | 104.06074 | 37001 ft | 425 kts | 330° |
| 2026-05-04 06:53 | 36.20426 | 104.04144 | 36823 ft | 421 kts | 321° |
| 2026-05-04 06:53 | 36.22568 | 104.01738 | 36588 ft | 410 kts | 311° |
| 2026-05-04 06:54 | 36.24301 | 103.98977 | 36354 ft | 406 kts | 302° |
| 2026-05-04 06:54 | 36.25623 | 103.95902 | 36122 ft | 404 kts | 293° |
| 2026-05-04 06:54 | 36.26503 | 103.92608 | 35872 ft | 404 kts | 285° |
| 2026-05-04 06:54 | 36.27091 | 103.89208 | 35650 ft | 404 kts | 283° |
| 2026-05-04 06:55 | 36.27640 | 103.85791 | 35465 ft | 404 kts | 283° |
| 2026-05-04 06:55 | 36.28177 | 103.82401 | 35276 ft | 405 kts | 283° |
| 2026-05-04 06:55 | 36.28717 | 103.78979 | 35085 ft | 406 kts | 283° |
| 2026-05-04 06:55 | 36.29259 | 103.75535 | 34898 ft | 407 kts | 283° |
| 2026-05-04 06:56 | 36.29799 | 103.72114 | 34689 ft | 408 kts | 283° |
| 2026-05-04 06:57 | 36.33608 | 103.47757 | 33045 ft | 414 kts | 282° |
| 2026-05-04 06:58 | 36.34152 | 103.44248 | 32788 ft | 415 kts | 282° |
| 2026-05-04 06:58 | 36.34698 | 103.40719 | 32530 ft | 416 kts | 282° |
| 2026-05-04 06:58 | 36.35246 | 103.37170 | 32277 ft | 417 kts | 282° |
| 2026-05-04 06:58 | 36.35791 | 103.33637 | 32024 ft | 417 kts | 282° |
| 2026-05-04 06:59 | 36.36329 | 103.30139 | 31781 ft | 419 kts | 282° |
| 2026-05-04 06:59 | 36.36874 | 103.26585 | 31526 ft | 420 kts | 282° |
| 2026-05-04 06:59 | 36.37417 | 103.23035 | 31275 ft | 421 kts | 282° |
| 2026-05-04 06:59 | 36.37960 | 103.19475 | 31025 ft | 422 kts | 282° |
| 2026-05-04 07:01 | 36.41790 | 102.94171 | 29267 ft | 428 kts | 281° |
| 2026-05-04 07:01 | 36.42334 | 102.90542 | 29009 ft | 427 kts | 281° |
| 2026-05-04 07:02 | 36.42872 | 102.86939 | 28755 ft | 425 kts | 282° |
| 2026-05-04 07:02 | 36.43382 | 102.83339 | 28468 ft | 424 kts | 280° |
| 2026-05-04 07:02 | 36.43823 | 102.79774 | 28153 ft | 421 kts | 280° |
| 2026-05-04 07:02 | 36.44255 | 102.76178 | 27820 ft | 420 kts | 280° |
| 2026-05-04 07:03 | 36.44688 | 102.72611 | 27399 ft | 418 kts | 280° |
| 2026-05-04 07:03 | 36.45143 | 102.69057 | 26897 ft | 414 kts | 283° |
| 2026-05-04 07:03 | 36.46072 | 102.65694 | 26380 ft | 408 kts | 297° |
| 2026-05-04 07:03 | 36.47610 | 102.62797 | 25877 ft | 403 kts | 311° |
| 2026-05-04 07:04 | 36.49634 | 102.60399 | 25398 ft | 398 kts | 320° |
| 2026-05-04 07:04 | 36.51743 | 102.58218 | 24916 ft | 394 kts | 320° |
| 2026-05-04 07:04 | 36.53859 | 102.56050 | 24408 ft | 390 kts | 320° |
| 2026-05-04 07:04 | 36.55939 | 102.53909 | 23927 ft | 386 kts | 320° |
| 2026-05-04 07:05 | 36.58009 | 102.51768 | 23461 ft | 382 kts | 319° |
| 2026-05-04 07:05 | 36.59847 | 102.49405 | 22978 ft | 379 kts | 309° |
| 2026-05-04 07:05 | 36.61275 | 102.46676 | 22502 ft | 377 kts | 298° |
| 2026-05-04 07:05 | 36.62299 | 102.43679 | 21963 ft | 383 kts | 291° |
| 2026-05-04 07:06 | 36.64040 | 102.37398 | 20857 ft | 381 kts | 290° |
| 2026-05-04 07:06 | 36.64891 | 102.34285 | 20318 ft | 379 kts | 289° |
| 2026-05-04 07:06 | 36.65737 | 102.31198 | 19789 ft | 378 kts | 289° |
| 2026-05-04 07:07 | 36.66591 | 102.28091 | 19314 ft | 375 kts | 289° |
| 2026-05-04 07:08 | 36.72350 | 102.07118 | 16411 ft | 362 kts | 289° |
| 2026-05-04 07:09 | 36.73154 | 102.04178 | 16039 ft | 358 kts | 289° |
| 2026-05-04 07:09 | 36.73943 | 102.01290 | 15836 ft | 348 kts | 289° |
| 2026-05-04 07:09 | 36.74703 | 101.98505 | 15719 ft | 327 kts | 289° |
| 2026-05-04 07:09 | 36.75405 | 101.95928 | 15587 ft | 303 kts | 289° |
| 2026-05-04 07:10 | 36.76064 | 101.93507 | 15463 ft | 280 kts | 289° |
| 2026-05-04 07:10 | 36.76664 | 101.91304 | 15362 ft | 265 kts | 289° |
| 2026-05-04 07:12 | 36.73853 | 101.77801 | 14008 ft | 235 kts | 242° |
| 2026-05-04 07:12 | 36.73046 | 101.76032 | 13771 ft | 233 kts | 242° |
| 2026-05-04 07:12 | 36.72258 | 101.74300 | 13559 ft | 229 kts | 242° |
| 2026-05-04 07:12 | 36.71470 | 101.72575 | 13355 ft | 227 kts | 240° |
| 2026-05-04 07:13 | 36.70389 | 101.71138 | 13124 ft | 229 kts | 215° |
| 2026-05-04 07:13 | 36.68914 | 101.70328 | 12822 ft | 238 kts | 201° |
| 2026-05-04 07:13 | 36.67318 | 101.69665 | 12422 ft | 244 kts | 200° |
| 2026-05-04 07:14 | 36.61785 | 101.71969 | 11604 ft | 225 kts | 111° |
| 2026-05-04 07:14 | 36.61326 | 101.73759 | 11522 ft | 212 kts | 107° |
| 2026-05-04 07:15 | 36.60927 | 101.75490 | 11294 ft | 206 kts | 107° |
| 2026-05-04 07:15 | 36.60512 | 101.77186 | 11045 ft | 209 kts | 108° |
| 2026-05-04 07:15 | 36.60041 | 101.78979 | 10798 ft | 220 kts | 109° |
| 2026-05-04 07:15 | 36.59549 | 101.80772 | 10523 ft | 220 kts | 110° |
| 2026-05-04 07:16 | 36.59045 | 101.82560 | 10245 ft | 219 kts | 110° |
| 2026-05-04 07:16 | 36.58544 | 101.84325 | 9932 ft | 218 kts | 110° |
| 2026-05-04 07:16 | 36.58043 | 101.86096 | 9727 ft | 210 kts | 110° |
| 2026-05-04 07:16 | 36.57577 | 101.87746 | 9584 ft | 198 kts | 110° |
| 2026-05-04 07:17 | 36.57140 | 101.89297 | 9490 ft | 183 kts | 110° |
| 2026-05-04 07:17 | 36.56735 | 101.90738 | 9354 ft | 170 kts | 110° |
| 2026-05-04 07:17 | 36.56352 | 101.92102 | 9136 ft | 164 kts | 111° |
| 2026-05-04 07:17 | 36.55981 | 101.93426 | 8841 ft | 164 kts | 110° |
| 2026-05-04 07:18 | 36.55612 | 101.94772 | 8426 ft | 163 kts | 110° |
| 2026-05-04 07:18 | 36.55242 | 101.96077 | 8110 ft | 159 kts | 110° |
| 2026-05-04 07:18 | 36.54882 | 101.97372 | 7920 ft | 160 kts | 110° |
| 2026-05-04 07:18 | 36.54509 | 101.98686 | 7676 ft | 159 kts | 111° |
| 2026-05-04 07:19 | 36.54145 | 101.99968 | 7481 ft | 158 kts | 111° |
| 2026-05-04 07:19 | 36.53789 | 102.01240 | 7334 ft | 155 kts | 110° |
| 2026-05-04 07:19 | 36.53439 | 102.02508 | 7224 ft | 142 kts | 110° |
| 2026-05-04 07:19 | 36.53205 | 102.03333 | 7222 ft | 67 kts | 109° |
| 2026-05-04 07:20 | 36.53081 | 102.03799 | 7220 ft | 50 kts | 113° |
| 2026-05-04 07:20 | 36.52959 | 102.04161 | 7220 ft | 41 kts | 120° |
| 2026-05-04 07:20 | 36.52817 | 102.04366 | 7219 ft | 24 kts | 139° |
| 2026-05-04 07:20 | 36.52714 | 102.04495 | 7218 ft | 15 kts | 117° |
| 2026-05-04 07:22 | 36.52440 | 102.04622 | 7216 ft | 0 kts | 130° |